Terminal Aerodrome Forecast
Issued by NWS

Home | Current Version | Previous Version | Text Only | Print | Product List | Glossary On
Versions: 1 2 3 4 5 6 7 8 9 10 11 12 13 14 15 16 17 18 19 20
575
FTUS43 KGRR 232341
TAFBTL
TAF
KBTL 232341Z 2400/2424 28010KT P6SM VCSH BKN008
     FM240200 29007KT P6SM OVC015
     FM242100 09010KT P6SM OVC025=

USA.gov is the U.S. government's official web portal to all federal, state and local government web resources and services.